Time;durP1;ratioP1;P1;durP2;ratioP2;P2;SDS_P1;SDS_P2;PMS_P1;PMS_P2;Temp;Humidity;BMP_temperature;BMP_pressure;BME280_temperature;BME280_humidity;BME280_pressure;Samples;Min_cycle;Max_cycle;Signal;HPM_P1;HPM_P2
2021/11/04 00:00:12;;;;;;;24.95;16.10;;;25.80;99.90;;;;;;4197615;28;20552;-67
2021/11/04 00:02:24;;;;;;;30.67;18.83;;;25.70;99.90;;;;;;4186474;28;20533;-67
2021/11/04 00:04:30;;;;;;;28.10;16.50;;;25.80;99.90;;;;;;4197089;28;20135;-68
2021/11/04 00:06:36;;;;;;;24.13;15.45;;;25.80;99.90;;;;;;4197434;28;20112;-67
2021/11/04 00:09:00;;;;;;;24.85;16.38;;;25.80;99.90;;;;;;4195630;28;20076;-68
2021/11/04 00:11:25;;;;;;;24.80;16.10;;;25.90;99.90;;;;;;4205662;28;20055;-67
2021/11/04 00:13:29;;;;;;;21.98;14.05;;;26.00;99.90;;;;;;4197105;28;20119;-67
2021/11/04 00:15:35;;;;;;;23.38;13.70;;;26.00;99.90;;;;;;4214537;28;20862;-68
2021/11/04 00:17:42;;;;;;;20.90;12.00;;;26.10;99.90;;;;;;4201380;28;20131;-68
2021/11/04 00:19:50;;;;;;;18.58;11.02;;;26.10;99.90;;;;;;4199175;28;20053;-68
2021/11/04 00:21:56;;;;;;;20.00;10.35;;;26.10;99.90;;;;;;4187855;28;20412;-68
2021/11/04 00:24:01;;;;;;;18.65;10.48;;;25.90;99.90;;;;;;4196587;28;20608;-68
2021/11/04 00:26:05;;;;;;;17.05;11.00;;;26.00;99.90;;;;;;4191878;28;20140;-68
2021/11/04 00:28:11;;;;;;;18.90;10.20;;;26.00;99.90;;;;;;4199893;28;20105;-68
2021/11/04 00:30:15;;;;;;;16.35;9.48;;;26.00;99.90;;;;;;4195511;28;20049;-67
2021/11/04 00:32:29;;;;;;;16.05;9.32;;;26.10;99.90;;;;;;4187451;28;20233;-67
2021/11/04 00:34:34;;;;;;;16.52;9.80;;;26.20;99.90;;;;;;4195787;28;20127;-67
2021/11/04 00:36:44;;;;;;;20.33;9.05;;;26.10;99.90;;;;;;4198807;28;20853;-68
2021/11/04 00:38:49;;;;;;;15.35;8.52;;;26.10;99.90;;;;;;4199148;28;20139;-68
2021/11/04 00:40:56;;;;;;;15.85;8.98;;;26.20;99.90;;;;;;4191190;28;20047;-68
2021/11/04 00:43:01;;;;;;;16.30;9.73;;;26.30;99.90;;;;;;4193644;28;20478;-67
2021/11/04 00:45:07;;;;;;;17.20;10.32;;;26.40;99.90;;;;;;4185777;28;20109;-67
2021/11/04 00:47:31;;;;;;;19.42;10.15;;;26.30;99.90;;;;;;4180143;28;20074;-68
2021/11/04 00:49:37;;;;;;;18.20;10.27;;;26.40;99.90;;;;;;4194041;28;20049;-67
2021/11/04 00:51:42;;;;;;;19.38;9.40;;;26.40;99.90;;;;;;4193013;28;20050;-68
2021/11/04 00:53:46;;;;;;;17.60;9.65;;;26.50;99.90;;;;;;4197196;28;20044;-68
2021/11/04 00:55:51;;;;;;;19.15;9.15;;;26.50;99.90;;;;;;4193272;28;20036;-68
2021/11/04 00:57:56;;;;;;;20.60;9.05;;;26.50;99.90;;;;;;4193697;28;20064;-67
2021/11/04 01:00:01;;;;;;;15.55;8.48;;;26.50;99.90;;;;;;4182985;28;20050;-67
2021/11/04 01:02:06;;;;;;;17.13;8.93;;;26.50;99.90;;;;;;4185246;28;20135;-67
2021/11/04 01:04:11;;;;;;;13.40;8.00;;;26.60;99.90;;;;;;4197998;28;20637;-68
2021/11/04 01:06:17;;;;;;;17.00;8.35;;;26.60;99.90;;;;;;4196102;28;20961;-68
2021/11/04 01:08:21;;;;;;;16.27;8.15;;;26.60;99.90;;;;;;4197891;28;20528;-68
2021/11/04 01:10:27;;;;;;;14.57;8.57;;;26.70;99.90;;;;;;4199262;28;20051;-68
2021/11/04 01:12:31;;;;;;;14.20;8.30;;;26.50;99.90;;;;;;4189529;28;20493;-70
2021/11/04 01:14:36;;;;;;;13.05;8.07;;;26.60;99.90;;;;;;4184830;28;20048;-68
2021/11/04 01:16:40;;;;;;;17.15;9.05;;;26.60;99.90;;;;;;4190996;28;20082;-68
2021/11/04 01:18:47;;;;;;;15.30;8.20;;;26.80;99.90;;;;;;4186399;28;20503;-68
2021/11/04 01:20:53;;;;;;;13.32;7.32;;;26.80;99.90;;;;;;4185658;28;20071;-68
2021/11/04 01:22:57;;;;;;;15.27;7.38;;;26.90;99.90;;;;;;4186720;28;20068;-67
2021/11/04 01:25:04;;;;;;;16.27;7.50;;;27.00;99.90;;;;;;4194422;28;20077;-67
2021/11/04 01:27:09;;;;;;;9.68;6.47;;;27.10;99.90;;;;;;4194392;28;20131;-67
2021/11/04 01:29:14;;;;;;;11.25;6.22;;;27.10;99.90;;;;;;4193010;28;20063;-67
2021/11/04 01:31:20;;;;;;;10.45;6.00;;;27.10;99.90;;;;;;4187277;28;20090;-67
2021/11/04 01:33:25;;;;;;;13.48;5.28;;;27.20;99.90;;;;;;4192809;28;20376;-67
2021/11/04 01:35:31;;;;;;;10.80;4.88;;;27.30;99.90;;;;;;4189873;28;20105;-69
2021/11/04 01:37:38;;;;;;;10.05;5.05;;;27.20;99.90;;;;;;4191454;28;20097;-69
2021/11/04 01:39:45;;;;;;;10.93;5.13;;;27.30;99.90;;;;;;4193919;28;20075;-67
2021/11/04 01:41:52;;;;;;;9.50;4.13;;;27.40;99.90;;;;;;4186179;28;20525;-67
2021/11/04 01:44:00;;;;;;;11.88;4.65;;;27.40;99.90;;;;;;4192524;28;20040;-66
2021/11/04 01:46:04;;;;;;;9.05;4.20;;;27.40;99.90;;;;;;4194289;28;20105;-66
2021/11/04 01:48:10;;;;;;;10.40;4.95;;;27.40;99.90;;;;;;4191147;28;20109;-67
2021/11/04 01:50:17;;;;;;;11.27;4.72;;;27.50;99.90;;;;;;4191780;28;20044;-67
2021/11/04 01:52:24;;;;;;;10.10;5.15;;;27.50;99.90;;;;;;4183619;28;20094;-66
2021/11/04 01:54:29;;;;;;;9.95;4.82;;;27.60;99.90;;;;;;4192827;28;20064;-66
2021/11/04 01:56:38;;;;;;;9.32;5.03;;;27.50;99.90;;;;;;4193192;28;20766;-67
2021/11/04 01:58:42;;;;;;;12.82;5.15;;;27.60;99.90;;;;;;4192665;28;20457;-66
2021/11/04 02:00:47;;;;;;;10.60;4.70;;;27.60;99.90;;;;;;4187511;28;20074;-66
2021/11/04 02:03:21;;;;;;;9.05;5.10;;;27.60;99.90;;;;;;4186684;28;20502;-66
2021/11/04 02:05:27;;;;;;;;;;;27.70;99.90;;;;;;4194399;28;20040;-67
2021/11/04 02:07:53;;;;;;;8.88;5.15;;;27.70;99.90;;;;;;4193843;28;19921;-67
2021/11/04 02:10:07;;;;;;;10.52;5.30;;;27.70;99.90;;;;;;4193475;28;20083;-67
2021/11/04 02:12:30;;;;;;;11.43;5.90;;;27.70;99.90;;;;;;4183104;28;20045;-67
2021/11/04 02:14:41;;;;;;;12.20;4.95;;;27.70;99.90;;;;;;4189569;28;20053;-67
2021/11/04 02:16:47;;;;;;;9.82;4.78;;;27.70;99.90;;;;;;4176576;28;20036;-67
2021/11/04 02:18:53;;;;;;;12.73;5.35;;;27.80;99.90;;;;;;4189827;28;20127;-68
2021/11/04 02:21:24;;;;;;;10.52;5.35;;;27.90;99.90;;;;;;4183864;28;20056;-67
2021/11/04 02:23:42;;;;;;;8.07;4.97;;;27.90;99.90;;;;;;4187492;28;20045;-67
2021/11/04 02:25:46;;;;;;;7.47;4.90;;;27.90;99.90;;;;;;4187764;28;20063;-67
2021/11/04 02:27:54;;;;;;;11.20;4.85;;;28.00;99.90;;;;;;4190259;28;20048;-67
2021/11/04 02:29:58;;;;;;;8.25;5.10;;;28.00;99.90;;;;;;4177087;28;20049;-67
2021/11/04 02:32:07;;;;;;;9.50;4.47;;;28.10;99.90;;;;;;4176716;28;20533;-66
2021/11/04 02:34:12;;;;;;;8.88;4.93;;;28.00;99.90;;;;;;4187144;28;21359;-68
2021/11/04 02:36:17;;;;;;;10.40;4.82;;;28.00;99.90;;;;;;4184959;28;20319;-66
2021/11/04 02:38:23;;;;;;;9.35;4.45;;;28.00;99.90;;;;;;4190768;28;20058;-67
2021/11/04 02:40:29;;;;;;;7.95;4.30;;;28.00;99.80;;;;;;4191709;28;20427;-68
2021/11/04 02:42:34;;;;;;;7.55;4.50;;;28.10;99.90;;;;;;4184000;28;20126;-68
2021/11/04 02:44:40;;;;;;;9.57;4.65;;;28.20;99.90;;;;;;4192910;28;20048;-68
2021/11/04 02:46:49;;;;;;;11.07;4.85;;;28.30;99.90;;;;;;4192935;28;20513;-69
2021/11/04 02:48:53;;;;;;;8.07;4.22;;;28.30;99.90;;;;;;4193255;28;20047;-70
2021/11/04 02:50:58;;;;;;;10.45;4.85;;;28.30;99.60;;;;;;4188708;28;20033;-70
2021/11/04 02:53:03;;;;;;;8.65;4.40;;;28.30;99.20;;;;;;4186379;28;20057;-70
2021/11/04 02:55:08;;;;;;;13.40;5.55;;;28.30;98.90;;;;;;4192223;28;20041;-70
2021/11/04 02:57:13;;;;;;;10.75;5.00;;;28.30;99.50;;;;;;4192048;28;20044;-70
2021/11/04 02:59:19;;;;;;;9.13;4.43;;;28.40;99.80;;;;;;4193217;28;20347;-70
2021/11/04 03:01:23;;;;;;;9.52;4.60;;;28.50;99.60;;;;;;4186096;28;20055;-69
2021/11/04 03:03:27;;;;;;;10.90;4.60;;;28.50;99.40;;;;;;4191683;28;20060;-70
2021/11/04 03:05:32;;;;;;;9.98;4.25;;;28.60;99.50;;;;;;4192036;28;20475;-70
2021/11/04 03:07:37;;;;;;;9.82;4.75;;;28.70;99.40;;;;;;4192038;28;20149;-70
2021/11/04 03:09:41;;;;;;;11.23;4.85;;;28.70;99.20;;;;;;4191858;28;20150;-71
2021/11/04 03:11:46;;;;;;;8.80;4.65;;;28.80;98.80;;;;;;4184892;28;20045;-71
2021/11/04 03:13:50;;;;;;;8.73;4.40;;;28.80;98.90;;;;;;4191591;28;20032;-71
2021/11/04 03:15:57;;;;;;;11.00;4.55;;;28.80;98.60;;;;;;4192302;28;20048;-70
2021/11/04 03:18:01;;;;;;;7.97;4.60;;;28.80;98.90;;;;;;4194276;28;20033;-70
2021/11/04 03:20:09;;;;;;;13.27;5.03;;;28.70;99.10;;;;;;4193037;28;20044;-70
2021/11/04 03:22:15;;;;;;;8.40;4.40;;;28.80;99.30;;;;;;4182636;28;20045;-70
2021/11/04 03:24:21;;;;;;;12.23;4.28;;;28.90;99.10;;;;;;4195025;28;20110;-71
2021/11/04 03:26:27;;;;;;;11.23;4.50;;;28.80;99.00;;;;;;4192441;28;20055;-70
2021/11/04 03:28:32;;;;;;;16.10;4.55;;;28.80;99.00;;;;;;4190178;28;20463;-71
2021/11/04 03:30:39;;;;;;;8.85;4.80;;;28.90;99.50;;;;;;4191766;28;20382;-70
2021/11/04 03:32:44;;;;;;;8.63;4.43;;;28.90;98.90;;;;;;4180293;28;20036;-71
2021/11/04 03:34:48;;;;;;;9.10;4.38;;;28.90;99.00;;;;;;4187346;28;20044;-71
2021/11/04 03:36:53;;;;;;;9.90;4.13;;;29.00;98.60;;;;;;4184424;28;20098;-70
2021/11/04 03:38:58;;;;;;;10.55;4.13;;;29.00;98.40;;;;;;4191878;28;20040;-70
2021/11/04 03:41:02;;;;;;;11.77;4.53;;;29.10;98.30;;;;;;4189191;28;20550;-69
2021/11/04 03:43:08;;;;;;;7.82;3.90;;;29.20;98.20;;;;;;4187106;28;20400;-70
2021/11/04 03:45:14;;;;;;;8.75;3.80;;;29.30;98.10;;;;;;4196873;28;20053;-70
2021/11/04 03:47:18;;;;;;;7.30;3.67;;;29.30;97.90;;;;;;4196799;28;20507;-70
2021/11/04 03:49:22;;;;;;;9.02;4.03;;;29.30;97.40;;;;;;4182615;28;20055;-70
2021/11/04 03:51:27;;;;;;;8.45;3.30;;;29.30;97.50;;;;;;4187349;28;20070;-71
2021/11/04 03:53:32;;;;;;;7.30;3.60;;;29.30;96.90;;;;;;4191547;28;20032;-73
2021/11/04 03:55:36;;;;;;;6.82;3.58;;;29.30;96.70;;;;;;4197623;28;20098;-71
2021/11/04 03:57:41;;;;;;;6.80;3.42;;;29.30;96.70;;;;;;4196103;28;20035;-72
2021/11/04 03:59:46;;;;;;;8.15;3.10;;;29.40;96.30;;;;;;4196821;28;20153;-72
2021/11/04 04:01:51;;;;;;;8.10;3.53;;;29.40;96.60;;;;;;4189428;28;20032;-71
2021/11/04 04:03:55;;;;;;;9.35;3.28;;;29.50;96.20;;;;;;4194682;28;20051;-69
2021/11/04 04:06:02;;;;;;;6.93;3.28;;;29.50;95.90;;;;;;4195406;28;20045;-70
2021/11/04 04:08:06;;;;;;;5.28;2.53;;;29.40;95.10;;;;;;4193468;28;20572;-70
2021/11/04 04:10:11;;;;;;;7.82;2.90;;;29.50;95.30;;;;;;4191409;28;20110;-69
2021/11/04 04:12:16;;;;;;;9.10;2.85;;;29.50;95.20;;;;;;4178719;28;20052;-69
2021/11/04 04:14:21;;;;;;;9.68;2.90;;;29.50;94.80;;;;;;4194283;28;20051;-70
2021/11/04 04:16:25;;;;;;;6.35;3.00;;;29.60;94.50;;;;;;4191242;28;20818;-70
2021/11/04 04:18:30;;;;;;;9.15;2.95;;;29.60;95.20;;;;;;4194141;28;20098;-70
2021/11/04 04:20:34;;;;;;;5.47;2.65;;;29.60;93.80;;;;;;4194431;28;20135;-70
2021/11/04 04:22:39;;;;;;;7.63;2.63;;;29.70;93.60;;;;;;4186464;28;20407;-70
2021/11/04 04:24:44;;;;;;;8.30;3.03;;;29.70;93.90;;;;;;4194888;28;20064;-69
2021/11/04 04:26:49;;;;;;;9.52;2.80;;;29.80;94.30;;;;;;4196806;28;20059;-70
2021/11/04 04:28:54;;;;;;;7.22;2.80;;;29.70;94.10;;;;;;4194544;28;20050;-69
2021/11/04 04:30:58;;;;;;;7.30;2.78;;;29.80;93.90;;;;;;4190304;28;20046;-69
2021/11/04 04:33:03;;;;;;;7.13;2.85;;;29.90;93.80;;;;;;4188774;28;20052;-67
2021/11/04 04:35:08;;;;;;;6.15;2.65;;;29.90;93.10;;;;;;4194588;28;20045;-69
2021/11/04 04:37:13;;;;;;;6.18;2.65;;;29.90;92.90;;;;;;4192042;28;20049;-69
2021/11/04 04:39:17;;;;;;;8.65;2.90;;;29.90;92.80;;;;;;4192652;28;20036;-70
2021/11/04 04:41:23;;;;;;;7.10;2.80;;;29.90;92.40;;;;;;4185910;28;20052;-68
2021/11/04 04:43:27;;;;;;;12.63;2.88;;;30.00;92.90;;;;;;4181615;28;21410;-69
2021/11/04 04:45:31;;;;;;;6.20;2.88;;;30.00;93.10;;;;;;4190020;28;20770;-69
2021/11/04 04:47:36;;;;;;;8.00;2.88;;;30.10;93.40;;;;;;4182903;28;20048;-70
2021/11/04 04:49:44;;;;;;;6.43;2.50;;;30.20;92.90;;;;;;4190984;28;20052;-69
2021/11/04 04:52:01;;;;;;;5.93;2.60;;;30.20;92.40;;;;;;4135424;28;20049;-69
2021/11/04 04:54:06;;;;;;;9.57;2.55;;;30.20;92.40;;;;;;4142423;28;20100;-69
2021/11/04 04:56:17;;;;;;;6.30;2.70;;;30.20;92.50;;;;;;4141509;28;20045;-69
2021/11/04 04:58:24;;;;;;;7.63;2.63;;;30.30;92.20;;;;;;4141834;28;20464;-69
2021/11/04 05:00:48;;;;;;;5.35;2.60;;;30.40;92.10;;;;;;4071576;29;20582;-69
2021/11/04 05:02:52;;;;;;;6.15;2.58;;;30.40;92.60;;;;;;4073168;29;20204;-70
2021/11/04 05:04:57;;;;;;;8.57;3.03;;;30.40;92.60;;;;;;4077758;29;20071;-70
2021/11/04 05:07:21;;;;;;;7.95;3.10;;;30.40;92.40;;;;;;4094180;28;20337;-70
2021/11/04 05:09:29;;;;;;;8.43;2.92;;;30.40;92.90;;;;;;4093725;28;20051;-71
2021/11/04 05:11:36;;;;;;;8.05;2.88;;;30.40;92.90;;;;;;4084991;28;20051;-70
2021/11/04 05:13:45;;;;;;;8.13;2.90;;;30.50;93.00;;;;;;4077469;28;20035;-70
2021/11/04 05:15:53;;;;;;;8.73;2.95;;;30.60;92.90;;;;;;4089951;28;20727;-71
2021/11/04 05:17:57;;;;;;;6.45;2.83;;;30.50;92.80;;;;;;4093646;28;20057;-71
2021/11/04 05:20:04;;;;;;;6.97;3.30;;;30.50;92.40;;;;;;4094062;28;20226;-71
2021/11/04 05:22:09;;;;;;;10.20;3.20;;;30.50;92.70;;;;;;4085045;28;20051;-70
2021/11/04 05:24:13;;;;;;;8.80;3.25;;;30.50;92.60;;;;;;4094712;28;20075;-71
2021/11/04 05:26:17;;;;;;;6.90;3.10;;;30.50;92.60;;;;;;4094209;28;20114;-71
2021/11/04 05:28:23;;;;;;;7.10;2.95;;;30.50;92.60;;;;;;4092877;28;20059;-71
2021/11/04 05:30:27;;;;;;;5.53;2.85;;;30.50;92.40;;;;;;4123785;28;20158;-71
2021/11/04 05:32:32;;;;;;;8.48;3.13;;;30.60;92.70;;;;;;4117385;28;20390;-71
2021/11/04 05:34:37;;;;;;;7.82;3.17;;;30.60;92.40;;;;;;4126019;28;20038;-70
2021/11/04 05:36:41;;;;;;;5.22;3.10;;;30.70;92.30;;;;;;4119063;28;20480;-70
2021/11/04 05:38:53;;;;;;;8.57;3.08;;;30.70;92.00;;;;;;4132733;28;20050;-70
2021/11/04 05:40:57;;;;;;;10.73;2.90;;;30.60;92.30;;;;;;4138596;28;20046;-70
2021/11/04 05:43:02;;;;;;;7.07;3.17;;;30.60;91.90;;;;;;4138848;28;20046;-70
2021/11/04 05:45:09;;;;;;;8.80;3.58;;;30.60;92.20;;;;;;4174764;28;20155;-69
2021/11/04 05:47:23;;;;;;;6.90;3.25;;;30.70;92.50;;;;;;4192252;28;20051;-69
2021/11/04 05:49:27;;;;;;;7.57;2.75;;;30.70;92.80;;;;;;4193036;28;20060;-69
2021/11/04 05:51:35;;;;;;;5.95;2.80;;;30.80;92.80;;;;;;4186488;28;20302;-70
2021/11/04 05:53:40;;;;;;;6.70;2.92;;;30.90;92.30;;;;;;4190630;28;20241;-70
2021/11/04 05:55:45;;;;;;;6.47;3.00;;;30.80;92.20;;;;;;4190007;28;20130;-70
2021/11/04 05:58:03;;;;;;;6.85;2.85;;;30.90;92.10;;;;;;4157585;28;20053;-69
2021/11/04 06:00:07;;;;;;;6.53;3.03;;;30.90;92.00;;;;;;4158516;28;20152;-70
2021/11/04 06:02:15;;;;;;;8.00;3.13;;;31.00;91.70;;;;;;4148091;28;20548;-71
2021/11/04 06:04:21;;;;;;;7.40;2.90;;;31.00;91.60;;;;;;4157644;28;20083;-71
2021/11/04 06:06:25;;;;;;;6.72;3.00;;;30.90;90.90;;;;;;4146366;28;20463;-70
2021/11/04 06:08:29;;;;;;;6.85;2.63;;;30.90;91.90;;;;;;4157169;28;20520;-71
2021/11/04 06:10:34;;;;;;;6.53;3.03;;;30.90;91.30;;;;;;4155794;28;20053;-71
2021/11/04 06:12:38;;;;;;;8.13;2.75;;;31.00;91.10;;;;;;4148583;28;20041;-68
2021/11/04 06:14:45;;;;;;;9.57;2.88;;;31.00;90.90;;;;;;4155475;28;20281;-70
2021/11/04 06:16:51;;;;;;;7.18;3.10;;;31.10;91.20;;;;;;4156163;28;20041;-70
2021/11/04 06:19:04;;;;;;;7.85;2.95;;;31.10;91.20;;;;;;4157769;28;20103;-70
2021/11/04 06:21:12;;;;;;;9.02;2.88;;;31.20;91.50;;;;;;4149465;28;20295;-70
2021/11/04 06:23:17;;;;;;;7.85;2.78;;;31.20;90.80;;;;;;4150613;28;20054;-70
2021/11/04 06:25:21;;;;;;;6.30;2.40;;;31.20;91.20;;;;;;4155633;28;20051;-70
2021/11/04 06:27:26;;;;;;;9.23;3.13;;;31.30;90.00;;;;;;4155187;28;20056;-70
2021/11/04 06:29:30;;;;;;;5.75;2.42;;;31.20;90.10;;;;;;4155167;28;20053;-69
2021/11/04 06:31:34;;;;;;;7.45;2.80;;;31.30;90.00;;;;;;4148774;28;20053;-69
2021/11/04 06:33:39;;;;;;;7.10;2.70;;;31.30;90.30;;;;;;4155207;28;20047;-70
2021/11/04 06:35:46;;;;;;;7.00;2.72;;;31.40;90.30;;;;;;4155614;28;20038;-70
2021/11/04 06:37:50;;;;;;;6.13;2.50;;;31.30;90.10;;;;;;4154960;28;20862;-69
2021/11/04 06:40:09;;;;;;;7.53;2.97;;;31.30;89.80;;;;;;4092208;28;20047;-72
2021/11/04 06:42:36;;;;;;;5.70;2.47;;;31.30;90.20;;;;;;4078791;28;20062;-72
2021/11/04 06:44:41;;;;;;;8.95;2.67;;;31.40;90.00;;;;;;4061949;29;20145;-68
2021/11/04 06:46:46;;;;;;;5.80;2.58;;;31.40;89.70;;;;;;4068229;29;20163;-71
2021/11/04 06:49:05;;;;;;;4.63;2.30;;;31.40;89.70;;;;;;4104727;28;20401;-71
2021/11/04 06:51:12;;;;;;;9.45;2.65;;;31.50;90.00;;;;;;4119584;28;20214;-71
2021/11/04 06:53:17;;;;;;;4.43;2.38;;;31.50;90.30;;;;;;4119573;28;20061;-70
2021/11/04 06:55:24;;;;;;;6.00;2.58;;;31.60;88.90;;;;;;4123311;28;20465;-70
2021/11/04 06:57:29;;;;;;;6.55;2.58;;;31.50;87.90;;;;;;4121993;28;20043;-70
2021/11/04 06:59:34;;;;;;;6.95;2.67;;;31.50;88.50;;;;;;4123860;28;20050;-71
2021/11/04 07:01:39;;;;;;;8.35;2.78;;;31.60;88.10;;;;;;4113700;28;20080;-69
2021/11/04 07:04:09;;;;;;;8.23;3.00;;;31.50;88.20;;;;;;4117211;28;20054;-70
2021/11/04 07:06:24;;;;;;;9.02;2.88;;;31.60;88.40;;;;;;4115521;28;20481;-70
2021/11/04 07:08:29;;;;;;;8.10;2.83;;;31.60;87.50;;;;;;4123494;28;20042;-68
2021/11/04 07:10:34;;;;;;;5.28;2.70;;;31.70;88.00;;;;;;4121114;28;20279;-69
2021/11/04 07:12:44;;;;;;;5.63;2.90;;;31.70;87.60;;;;;;4112949;28;20195;-70
2021/11/04 07:15:07;;;;;;;7.03;2.60;;;31.70;87.20;;;;;;4085059;28;20125;-70
2021/11/04 07:17:14;;;;;;;7.15;2.80;;;31.70;87.30;;;;;;4094930;28;20054;-69
2021/11/04 07:19:20;;;;;;;4.40;2.67;;;31.70;87.40;;;;;;4116994;28;20390;-70
2021/11/04 07:21:44;;;;;;;5.63;2.17;;;31.80;87.30;;;;;;4114537;28;20141;-70
2021/11/04 07:24:03;;;;;;;4.28;2.72;;;31.80;86.60;;;;;;4137234;28;20104;-69
2021/11/04 07:26:16;;;;;;;4.85;2.67;;;31.60;86.00;;;;;;4133202;28;20054;-71
2021/11/04 07:28:21;;;;;;;7.35;2.75;;;31.60;86.60;;;;;;4155336;28;20051;-70
2021/11/04 07:30:27;;;;;;;5.55;2.88;;;31.60;86.30;;;;;;4154070;28;20049;-70
2021/11/04 07:32:32;;;;;;;5.50;2.60;;;31.60;85.90;;;;;;4144503;28;20472;-70
2021/11/04 07:34:57;;;;;;;6.72;2.30;;;31.60;85.60;;;;;;4141450;28;20129;-70
2021/11/04 07:37:05;;;;;;;6.47;2.60;;;31.60;84.40;;;;;;4140582;28;20045;-70
2021/11/04 07:39:11;;;;;;;4.68;2.35;;;31.60;85.40;;;;;;4152714;28;20037;-70
2021/11/04 07:41:34;;;;;;;5.53;2.72;;;31.60;85.40;;;;;;4140097;28;20049;-70
2021/11/04 07:43:39;;;;;;;4.78;2.40;;;31.70;83.90;;;;;;4146711;28;20058;-71
2021/11/04 07:45:46;;;;;;;6.20;2.72;;;31.70;83.70;;;;;;4154935;28;20049;-71
2021/11/04 07:47:52;;;;;;;5.43;2.70;;;31.60;83.90;;;;;;4173014;28;20045;-70
2021/11/04 07:49:56;;;;;;;5.43;2.80;;;31.50;84.80;;;;;;4171940;28;20092;-70
2021/11/04 07:52:06;;;;;;;29.58;22.25;;;31.50;85.50;;;;;;4162435;28;20438;-70
2021/11/04 07:54:16;;;;;;;16.98;10.43;;;31.40;86.20;;;;;;4172086;28;20063;-70
2021/11/04 07:56:20;;;;;;;9.65;4.32;;;31.40;86.30;;;;;;4156340;28;20132;-71
2021/11/04 07:58:49;;;;;;;7.75;3.42;;;31.30;86.40;;;;;;4168707;28;20478;-69
2021/11/04 08:00:56;;;;;;;7.70;2.65;;;31.40;86.70;;;;;;4148172;28;20045;-70
2021/11/04 08:03:04;;;;;;;5.85;2.50;;;31.40;84.60;;;;;;4148161;28;20044;-70
2021/11/04 08:05:22;;;;;;;6.32;2.28;;;31.40;85.50;;;;;;4122706;28;20082;-70
2021/11/04 08:07:37;;;;;;;5.93;2.50;;;31.50;85.60;;;;;;4151289;28;20041;-70
2021/11/04 08:09:47;;;;;;;7.95;2.55;;;31.60;85.60;;;;;;4168518;28;20055;-71
2021/11/04 08:11:53;;;;;;;7.72;2.50;;;31.60;85.90;;;;;;4179617;28;20094;-71
2021/11/04 08:13:57;;;;;;;4.20;2.47;;;31.60;86.20;;;;;;4181934;28;20040;-71
2021/11/04 08:16:05;;;;;;;5.28;2.70;;;31.60;85.40;;;;;;4186205;28;20807;-72
2021/11/04 08:18:14;;;;;;;6.45;2.50;;;31.60;85.10;;;;;;4170313;28;20037;-71
2021/11/04 08:20:22;;;;;;;8.80;2.90;;;31.60;85.10;;;;;;4181108;28;20056;-71
2021/11/04 08:22:47;;;;;;;4.70;2.65;;;31.60;85.60;;;;;;4175316;28;20040;-71
2021/11/04 08:25:00;;;;;;;;;;;31.60;84.70;;;;;;4151705;28;20582;-71
2021/11/04 08:27:05;;;;;;;8.25;2.65;;;31.60;84.00;;;;;;4147970;28;19929;-71
2021/11/04 08:29:10;;;;;;;7.05;2.80;;;31.60;83.60;;;;;;4142053;28;20073;-71
2021/11/04 08:31:15;;;;;;;6.38;2.67;;;31.60;84.50;;;;;;4155756;28;20551;-72
2021/11/04 08:33:40;;;;;;;6.25;2.78;;;31.60;82.90;;;;;;4122425;28;20514;-71
2021/11/04 08:35:48;;;;;;;6.65;2.88;;;31.50;83.80;;;;;;4119980;28;20038;-70
2021/11/04 08:38:14;;;;;;;5.20;2.47;;;31.50;83.00;;;;;;4128475;28;20049;-69
2021/11/04 08:40:32;;;;;;;4.97;2.78;;;31.60;84.00;;;;;;4060903;29;20095;-69
2021/11/04 08:42:37;;;;;;;7.10;2.55;;;31.60;84.30;;;;;;4053739;29;20048;-70
2021/11/04 08:45:05;;;;;;;6.75;3.17;;;31.60;84.10;;;;;;4061781;29;20252;-69
2021/11/04 08:47:33;;;;;;;4.80;2.55;;;31.60;83.90;;;;;;3984654;29;20102;-70
2021/11/04 08:49:44;;;;;;;8.35;3.80;;;31.60;83.80;;;;;;3986130;29;20407;-69
2021/11/04 08:52:13;;;;;;;7.18;2.88;;;31.50;84.20;;;;;;3980237;29;20569;-69
2021/11/04 08:54:18;;;;;;;4.95;2.30;;;31.50;83.30;;;;;;3998411;29;20057;-70
2021/11/04 08:56:23;;;;;;;4.60;2.25;;;31.40;83.40;;;;;;4000425;29;20061;-70
2021/11/04 08:58:36;;;;;;;7.18;2.70;;;31.40;82.90;;;;;;4001472;29;20056;-71
2021/11/04 09:00:41;;;;;;;5.50;2.58;;;31.40;83.50;;;;;;3998554;29;20524;-69
2021/11/04 09:02:46;;;;;;;6.70;2.40;;;31.30;84.00;;;;;;3996623;29;20049;-70
2021/11/04 09:04:51;;;;;;;7.30;2.35;;;31.30;83.70;;;;;;4012446;29;20045;-70
2021/11/04 09:06:59;;;;;;;4.63;2.10;;;31.30;84.20;;;;;;4029410;29;20092;-69
2021/11/04 09:09:08;;;;;;;5.03;2.65;;;31.30;84.30;;;;;;4025375;29;20049;-69
2021/11/04 09:11:28;;;;;;;6.25;2.28;;;31.30;84.10;;;;;;3968408;29;20058;-70
2021/11/04 09:13:49;;;;;;;8.40;2.45;;;31.30;84.00;;;;;;3981765;29;20141;-71
2021/11/04 09:15:55;;;;;;;5.85;2.58;;;31.20;84.00;;;;;;3984683;29;20315;-70
2021/11/04 09:18:13;;;;;;;5.15;2.42;;;31.10;83.80;;;;;;3983639;29;20706;-71
2021/11/04 09:20:21;;;;;;;7.18;2.42;;;31.10;84.50;;;;;;3985171;29;20047;-70
2021/11/04 09:22:26;;;;;;;4.70;2.38;;;31.10;84.10;;;;;;3975196;29;20949;-69
2021/11/04 09:24:34;;;;;;;6.10;2.65;;;31.10;84.70;;;;;;3997779;29;20076;-69
2021/11/04 09:26:41;;;;;;;4.75;2.78;;;31.10;84.00;;;;;;4029629;29;20519;-70
2021/11/04 09:28:45;;;;;;;44.13;6.50;;;31.10;84.80;;;;;;4031484;29;20077;-70
2021/11/04 09:30:53;;;;;;;14.25;4.00;;;31.10;84.70;;;;;;4041878;29;20075;-70
2021/11/04 09:32:58;;;;;;;22.90;4.95;;;31.10;84.80;;;;;;4072633;29;20050;-70
2021/11/04 09:35:02;;;;;;;37.90;11.60;;;31.10;85.20;;;;;;4074320;29;20044;-70
2021/11/04 09:37:10;;;;;;;57.83;18.20;;;31.00;86.20;;;;;;4068144;29;20098;-70
2021/11/04 09:39:18;;;;;;;213.45;61.45;;;31.00;87.40;;;;;;4068587;29;20127;-70
2021/11/04 09:41:32;;;;;;;45.55;13.93;;;31.00;88.20;;;;;;4063005;29;20032;-70
2021/11/04 09:43:37;;;;;;;61.03;20.95;;;30.90;87.80;;;;;;4070248;29;20518;-70
2021/11/04 09:45:42;;;;;;;61.88;18.42;;;30.90;88.10;;;;;;4071851;29;20420;-70
2021/11/04 09:48:16;;;;;;;172.52;34.63;;;31.00;88.30;;;;;;4064362;28;20060;-70
2021/11/04 09:50:27;;;;;;;111.10;25.70;;;31.00;90.00;;;;;;4115933;28;20058;-70
2021/11/04 09:52:45;;;;;;;410.55;98.45;;;31.00;90.20;;;;;;4073864;29;20056;-70
2021/11/04 09:54:54;;;;;;;330.30;79.38;;;30.90;90.80;;;;;;4074192;29;20454;-70
2021/11/04 09:57:07;;;;;;;92.80;25.27;;;30.80;90.90;;;;;;4109227;28;20073;-70
2021/11/04 09:59:14;;;;;;;105.40;20.25;;;30.80;90.70;;;;;;4108226;28;20474;-68
2021/11/04 10:01:25;;;;;;;89.57;15.45;;;30.80;90.40;;;;;;4106453;28;20042;-70
2021/11/04 10:03:36;;;;;;;38.35;9.10;;;30.80;90.60;;;;;;4110440;28;20050;-71
2021/11/04 10:05:54;;;;;;;24.70;8.32;;;30.80;90.60;;;;;;4016653;29;20053;-71
2021/11/04 10:08:09;;;;;;;20.25;8.18;;;30.70;90.50;;;;;;4034403;29;20063;-71
2021/11/04 10:10:20;;;;;;;38.10;15.88;;;30.70;90.60;;;;;;4033198;29;20061;-69
2021/11/04 10:12:24;;;;;;;41.22;18.70;;;30.70;90.80;;;;;;4028164;29;20590;-69
2021/11/04 10:14:32;;;;;;;37.05;23.45;;;30.70;91.00;;;;;;4038562;29;20104;-70
2021/11/04 10:16:36;;;;;;;67.13;37.05;;;30.70;91.40;;;;;;4035775;29;20132;-70
2021/11/04 10:18:51;;;;;;;63.25;37.95;;;30.70;91.30;;;;;;4042910;29;20043;-69
2021/11/04 10:21:24;;;;;;;68.70;40.45;;;30.70;91.50;;;;;;4068741;28;20715;-68
2021/11/04 10:23:46;;;;;;;68.45;40.60;;;30.60;91.70;;;;;;4078649;28;20699;-70
2021/11/04 10:25:51;;;;;;;71.35;40.10;;;30.60;92.20;;;;;;4080054;28;20135;-69
2021/11/04 10:28:02;;;;;;;61.63;37.20;;;30.50;92.30;;;;;;4080958;28;20051;-69
2021/11/04 10:30:15;;;;;;;62.15;35.38;;;30.50;92.60;;;;;;4101119;28;20054;-70
2021/11/04 10:32:31;;;;;;;64.68;33.25;;;30.50;92.80;;;;;;4110731;28;20572;-68
2021/11/04 10:34:36;;;;;;;87.68;36.17;;;30.50;93.10;;;;;;4126652;28;20049;-69
2021/11/04 10:37:23;;;;;;;74.28;32.97;;;30.50;93.30;;;;;;4127734;28;20042;-70
2021/11/04 10:39:37;;;;;;;65.68;28.45;;;30.40;93.40;;;;;;4111896;28;20046;-70
2021/11/04 10:41:45;;;;;;;51.80;25.48;;;30.40;93.40;;;;;;4104555;28;20062;-71
2021/11/04 10:43:52;;;;;;;56.30;25.65;;;30.40;93.40;;;;;;4107330;28;20464;-70
2021/11/04 10:46:07;;;;;;;54.90;23.55;;;30.40;93.50;;;;;;4108450;28;20038;-70
2021/11/04 10:48:24;;;;;;;41.80;20.90;;;30.30;93.60;;;;;;4106543;28;20579;-70
2021/11/04 10:50:48;;;;;;;46.90;20.38;;;30.30;93.70;;;;;;4155582;28;20499;-70
2021/11/04 10:53:22;;;;;;;49.83;21.45;;;30.30;93.90;;;;;;4120964;28;20120;-71
2021/11/04 10:55:37;;;;;;;45.38;21.05;;;30.30;94.10;;;;;;4132258;28;20057;-71
2021/11/04 10:57:48;;;;;;;52.72;22.25;;;30.20;94.20;;;;;;4131372;28;20046;-70
2021/11/04 10:59:55;;;;;;;57.75;26.13;;;30.20;94.40;;;;;;4130311;28;20243;-71
2021/11/04 11:02:01;;;;;;;56.13;31.60;;;30.10;94.50;;;;;;4118414;28;20039;-70
2021/11/04 11:04:15;;;;;;;61.08;30.98;;;30.10;94.70;;;;;;4113252;28;20050;-70